Time;durP1;ratioP1;P1;durP2;ratioP2;P2;SDS_P1;SDS_P2;PMS_P1;PMS_P2;Temp;Humidity;BMP_temperature;BMP_pressure;BME280_temperature;BME280_humidity;BME280_pressure;Samples;Min_cycle;Max_cycle;Signal;HPM_P1;HPM_P2
2024/02/20 00:01:51;;;;;;;2.28;1.20;;;11.10;69.50;;;6.45;100.00;96500.16;5006168;28;20028;-51
2024/02/20 00:04:20;;;;;;;1.33;1.00;;;11.10;69.50;;;6.45;100.00;96500.16;5017090;28;20203;-51
2024/02/20 00:06:45;;;;;;;1.45;1.08;;;11.10;69.50;;;6.43;100.00;96497.75;5019959;28;20052;-49
2024/02/20 00:09:11;;;;;;;2.80;1.27;;;11.10;69.60;;;6.43;100.00;96494.28;5016335;28;20108;-50
2024/02/20 00:11:38;;;;;;;2.28;1.25;;;11.10;69.60;;;6.39;100.00;96488.63;5019583;28;20078;-51
2024/02/20 00:14:04;;;;;;;1.52;1.20;;;11.10;69.60;;;6.39;100.00;96496.56;4979268;28;20029;-51
2024/02/20 00:16:29;;;;;;;3.85;1.35;;;11.10;69.60;;;6.37;100.00;96488.03;5026600;28;20031;-49
2024/02/20 00:18:55;;;;;;;2.22;1.08;;;11.00;69.60;;;6.42;100.00;96490.81;5027621;28;20032;-54
2024/02/20 00:21:21;;;;;;;3.63;1.17;;;11.10;69.70;;;6.40;100.00;96492.06;5029415;28;20028;-52
2024/02/20 00:23:47;;;;;;;4.55;1.50;;;11.00;69.60;;;6.37;100.00;96490.66;5025156;28;20411;-51
2024/02/20 00:26:13;;;;;;;1.73;1.23;;;11.00;69.60;;;6.39;100.00;96491.28;5018887;28;20033;-51
2024/02/20 00:28:42;;;;;;;1.70;1.27;;;11.00;69.60;;;6.39;100.00;96490.44;5013672;28;20040;-51
2024/02/20 00:31:08;;;;;;;2.25;1.17;;;11.00;69.60;;;6.39;100.00;96487.78;5021193;28;20436;-54
2024/02/20 00:33:35;;;;;;;4.03;1.50;;;11.00;69.60;;;6.37;100.00;96490.66;4998289;28;20025;-54
2024/02/20 00:36:08;;;;;;;4.03;1.33;;;11.00;70.40;;;6.39;100.00;96495.72;5020562;28;20029;-54
2024/02/20 00:38:34;;;;;;;2.25;1.30;;;11.00;69.60;;;6.42;100.00;96495.28;5014655;28;20086;-53
2024/02/20 00:41:00;;;;;;;1.90;1.13;;;11.00;69.60;;;6.40;100.00;96497.38;5015476;28;20473;-52
2024/02/20 00:43:26;;;;;;;2.70;1.42;;;11.00;69.60;;;6.44;100.00;96493.25;5003731;28;20028;-53
2024/02/20 00:45:52;;;;;;;2.80;1.40;;;11.00;69.60;;;6.43;100.00;96489.00;5003584;28;20024;-54
2024/02/20 00:48:17;;;;;;;1.85;1.40;;;11.10;69.70;;;6.43;100.00;96492.44;4999304;28;20416;-51
2024/02/20 00:50:43;;;;;;;2.65;1.48;;;11.00;69.60;;;6.36;100.00;96491.69;4995698;28;20035;-50
2024/02/20 00:53:09;;;;;;;4.47;1.50;;;11.10;69.70;;;6.39;100.00;96495.72;5016734;28;20087;-53
2024/02/20 00:55:35;;;;;;;3.63;1.77;;;11.00;69.70;;;6.36;100.00;96494.34;5018825;28;20028;-51
2024/02/20 00:58:01;;;;;;;6.53;2.75;;;11.00;69.80;;;6.37;100.00;96495.97;5016967;28;20021;-51
2024/02/20 01:00:28;;;;;;;2.28;1.50;;;10.90;69.90;;;6.40;100.00;96495.53;5014246;28;20052;-49
2024/02/20 01:02:54;;;;;;;5.63;1.63;;;10.90;70.00;;;6.34;100.00;96496.38;4998072;28;20044;-55
2024/02/20 01:05:20;;;;;;;6.60;1.85;;;10.80;70.20;;;6.28;100.00;96494.59;5019677;28;20391;-55
2024/02/20 01:07:46;;;;;;;2.55;1.67;;;10.80;70.30;;;6.29;100.00;96503.34;5017375;28;20543;-53
2024/02/20 01:10:12;;;;;;;2.85;1.70;;;10.70;70.40;;;6.26;100.00;96500.09;5022302;28;20020;-53
2024/02/20 01:12:38;;;;;;;4.38;1.65;;;10.80;70.70;;;6.31;100.00;96493.38;5013103;28;20128;-51
2024/02/20 01:15:06;;;;;;;3.65;1.70;;;10.70;70.70;;;6.29;100.00;96490.91;5021874;28;20037;-54
2024/02/20 01:17:32;;;;;;;3.38;1.95;;;10.70;70.70;;;6.31;100.00;96493.38;5018144;28;20026;-50
2024/02/20 01:19:58;;;;;;;3.75;1.90;;;10.70;70.80;;;6.31;100.00;96486.22;5015043;28;20051;-56
2024/02/20 01:22:25;;;;;;;5.03;1.98;;;10.70;70.80;;;6.29;100.00;96492.75;5020377;28;20044;-54
2024/02/20 01:24:51;;;;;;;3.03;2.00;;;10.70;70.90;;;6.26;100.00;96486.88;5017775;28;20037;-50
2024/02/20 01:27:17;;;;;;;4.78;2.38;;;10.70;70.90;;;6.28;100.00;96483.22;5020698;28;20534;-50
2024/02/20 01:29:44;;;;;;;5.30;2.40;;;10.70;70.90;;;6.24;100.00;96478.34;5002491;28;20045;-51
2024/02/20 01:32:11;;;;;;;3.63;2.28;;;10.70;71.00;;;6.17;100.00;96484.69;5020644;28;20116;-50
2024/02/20 01:34:37;;;;;;;5.00;2.30;;;10.70;71.00;;;6.21;100.00;96485.91;5029176;28;20056;-49
2024/02/20 01:37:03;;;;;;;3.97;2.30;;;10.70;71.10;;;6.15;100.00;96479.63;5012001;28;20079;-54
2024/02/20 01:39:28;;;;;;;3.65;1.90;;;10.70;71.10;;;6.18;100.00;96479.22;5027217;28;20026;-52
2024/02/20 01:41:57;;;;;;;4.82;2.55;;;10.70;71.20;;;6.15;100.00;96477.00;5012940;28;20030;-53
2024/02/20 01:44:32;;;;;;;3.00;2.30;;;10.70;71.10;;;6.19;100.00;96483.47;5021790;28;20027;-52
2024/02/20 01:47:03;;;;;;;3.08;2.10;;;10.70;71.20;;;6.12;100.00;96481.91;5000191;28;20025;-56
2024/02/20 01:49:30;;;;;;;2.10;1.70;;;10.70;71.20;;;6.13;100.00;96471.09;5004961;28;20068;-50
2024/02/20 01:51:58;;;;;;;5.80;2.40;;;10.70;71.20;;;6.14;100.00;96469.25;5020928;28;20029;-52
2024/02/20 01:54:24;;;;;;;3.47;2.20;;;10.60;71.10;;;6.09;100.00;96472.56;5005907;28;20497;-52
2024/02/20 01:56:53;;;;;;;3.55;2.45;;;10.60;71.10;;;6.09;100.00;96475.19;5020318;28;20359;-52
2024/02/20 01:59:18;;;;;;;3.10;2.20;;;10.60;71.20;;;6.05;100.00;96466.09;5020965;28;20028;-59
2024/02/20 02:01:44;;;;;;;4.38;2.22;;;10.60;71.20;;;6.11;100.00;96465.22;5010685;28;20390;-53
2024/02/20 02:04:10;;;;;;;6.43;2.67;;;10.60;71.20;;;6.02;100.00;96463.88;5021204;28;20099;-53
2024/02/20 02:06:41;;;;;;;7.95;2.30;;;10.60;71.30;;;6.03;100.00;96462.84;5002731;28;20048;-53
2024/02/20 02:09:06;;;;;;;2.58;2.03;;;10.60;71.40;;;6.03;100.00;96466.28;5020634;28;20025;-52
2024/02/20 02:11:39;;;;;;;6.13;2.65;;;10.60;71.30;;;6.03;100.00;96461.00;5022228;28;20033;-49
2024/02/20 02:14:06;;;;;;;5.75;2.80;;;10.60;72.20;;;6.06;100.00;96461.59;4999992;28;20070;-51
2024/02/20 02:16:32;;;;;;;3.60;2.55;;;10.60;71.30;;;6.06;100.00;96467.69;5004040;28;20078;-52
2024/02/20 02:18:58;;;;;;;3.50;2.60;;;10.60;71.30;;;6.00;100.00;96477.28;4996732;28;20022;-56
2024/02/20 02:21:24;;;;;;;4.70;3.45;;;10.60;71.40;;;6.03;100.00;96482.16;5019750;28;20024;-54
2024/02/20 02:23:50;;;;;;;3.45;2.83;;;10.60;71.40;;;6.04;100.00;96475.03;5018778;28;20132;-51
2024/02/20 02:26:17;;;;;;;3.47;2.60;;;10.60;71.40;;;6.04;100.00;96477.66;5017379;28;20116;-50
2024/02/20 02:28:47;;;;;;;3.95;2.55;;;10.60;71.40;;;6.02;100.00;96483.19;5018253;28;20028;-51
2024/02/20 02:31:14;;;;;;;4.35;2.40;;;10.60;71.40;;;6.01;100.00;96478.09;5010297;28;20022;-51
2024/02/20 02:33:40;;;;;;;2.80;2.47;;;10.60;71.40;;;6.02;100.00;96477.09;5024112;28;20032;-55
2024/02/20 02:36:06;;;;;;;4.85;2.53;;;10.60;71.30;;;5.96;100.00;96473.47;5014137;28;20018;-51
2024/02/20 02:38:32;;;;;;;3.35;2.40;;;10.50;71.30;;;5.88;100.00;96471.03;5018812;28;20032;-52
2024/02/20 02:40:59;;;;;;;4.22;2.47;;;10.50;71.20;;;5.87;100.00;96485.28;5014963;28;20025;-54
2024/02/20 02:43:25;;;;;;;3.40;2.38;;;10.50;71.30;;;5.83;100.00;96478.81;5011966;28;20433;-50
2024/02/20 02:45:51;;;;;;;4.90;2.47;;;10.50;71.30;;;5.81;100.00;96475.56;5022703;28;20052;-50
2024/02/20 02:48:17;;;;;;;2.97;2.35;;;10.50;71.30;;;5.80;100.00;96469.44;5015285;28;20112;-51
2024/02/20 02:50:43;;;;;;;6.78;2.30;;;10.50;71.30;;;5.79;100.00;96469.66;5024079;28;20050;-53
2024/02/20 02:53:09;;;;;;;3.13;2.40;;;10.40;71.10;;;5.73;100.00;96471.31;5018645;28;20029;-53
2024/02/20 02:55:34;;;;;;;3.50;2.15;;;10.40;71.10;;;5.72;100.00;96469.69;5003977;28;20075;-50
2024/02/20 02:58:00;;;;;;;3.10;1.90;;;10.40;71.10;;;5.72;100.00;96468.88;4998945;28;20033;-51
2024/02/20 03:00:26;;;;;;;2.42;1.63;;;10.30;71.00;;;5.67;100.00;96474.00;5018953;28;20048;-52
2024/02/20 03:02:52;;;;;;;3.17;2.33;;;10.30;71.00;;;5.62;100.00;96482.56;5022614;28;20095;-51
2024/02/20 03:05:19;;;;;;;5.80;2.03;;;10.30;71.10;;;5.61;100.00;96477.47;5018633;28;20404;-54
2024/02/20 03:07:44;;;;;;;5.15;2.05;;;10.30;71.10;;;5.56;100.00;96483.41;5018382;28;20427;-50
2024/02/20 03:10:11;;;;;;;3.65;2.15;;;10.20;71.10;;;5.50;100.00;96486.88;5022828;28;20070;-49
2024/02/20 03:12:38;;;;;;;4.15;2.13;;;10.20;71.10;;;5.54;100.00;96485.44;5013605;28;20037;-50
2024/02/20 03:15:04;;;;;;;3.22;1.90;;;10.20;71.20;;;5.54;100.00;96496.81;5021376;28;20425;-54
2024/02/20 03:17:30;;;;;;;2.80;2.03;;;10.10;71.10;;;5.53;100.00;96494.41;5018228;28;20021;-51
2024/02/20 03:19:56;;;;;;;5.07;1.85;;;10.10;71.10;;;5.49;100.00;96506.41;5019116;28;20383;-53
2024/02/20 03:22:22;;;;;;;3.35;2.13;;;10.10;71.20;;;5.52;100.00;96503.34;5001129;28;20463;-49
2024/02/20 03:24:48;;;;;;;5.05;2.17;;;10.10;71.20;;;5.44;100.00;96509.69;5002355;28;20044;-52
2024/02/20 03:27:14;;;;;;;3.33;1.92;;;10.10;71.30;;;5.49;100.00;96517.78;5014819;28;20107;-49
2024/02/20 03:29:43;;;;;;;4.00;2.33;;;10.10;71.30;;;5.51;100.00;96517.56;5016436;28;20104;-55
2024/02/20 03:32:10;;;;;;;3.20;2.10;;;10.10;71.30;;;5.55;100.00;96518.78;5000162;28;20518;-54
2024/02/20 03:34:36;;;;;;;4.93;2.20;;;10.10;71.30;;;5.52;100.00;96522.66;5021408;28;20048;-49
2024/02/20 03:37:03;;;;;;;5.07;2.55;;;10.10;71.20;;;5.53;100.00;96526.13;5010040;28;20017;-52
2024/02/20 03:39:29;;;;;;;3.50;2.20;;;10.20;71.30;;;5.55;100.00;96526.72;5002453;28;20052;-51
2024/02/20 03:41:55;;;;;;;2.85;2.17;;;10.10;71.30;;;5.55;100.00;96532.00;5011233;28;20063;-51
2024/02/20 03:44:21;;;;;;;3.53;2.03;;;10.10;71.20;;;5.55;100.00;96532.81;5015571;28;20029;-53
2024/02/20 03:46:46;;;;;;;3.00;2.50;;;10.20;71.30;;;5.52;100.00;96540.34;5015440;28;20024;-53
2024/02/20 03:49:14;;;;;;;4.22;2.25;;;10.10;71.20;;;5.51;100.00;96544.81;5015661;28;20025;-53
2024/02/20 03:51:39;;;;;;;3.58;2.13;;;10.20;71.20;;;5.54;100.00;96539.09;5013262;28;20037;-55
2024/02/20 03:54:05;;;;;;;4.93;2.45;;;10.10;71.20;;;5.54;100.00;96540.94;5013374;28;20383;-54
2024/02/20 03:56:31;;;;;;;5.00;2.17;;;10.20;71.20;;;5.55;100.00;96532.81;5014687;28;20380;-54
2024/02/20 03:58:57;;;;;;;3.95;2.10;;;10.20;71.20;;;5.53;100.00;96540.13;4996956;28;20164;-53
2024/02/20 04:01:23;;;;;;;4.18;2.30;;;10.20;71.20;;;5.52;100.00;96541.16;5011643;28;20468;-49
2024/02/20 04:03:48;;;;;;;5.78;2.53;;;10.20;71.20;;;5.57;100.00;96553.75;4996591;28;20183;-52
2024/02/20 04:06:16;;;;;;;2.50;2.08;;;10.20;71.20;;;5.59;100.00;96554.34;5013690;28;20044;-49
2024/02/20 04:08:42;;;;;;;4.78;2.40;;;10.20;71.10;;;5.60;100.00;96552.50;5014844;28;20017;-52
2024/02/20 04:11:08;;;;;;;3.05;2.38;;;10.20;71.10;;;5.53;100.00;96556.00;5014845;28;20103;-54
2024/02/20 04:13:34;;;;;;;4.97;2.70;;;10.10;71.10;;;5.51;100.00;96558.03;5016430;28;20029;-51
2024/02/20 04:15:59;;;;;;;5.35;2.50;;;10.10;71.10;;;5.51;100.00;96573.06;5014095;28;20043;-53
2024/02/20 04:18:25;;;;;;;4.97;2.75;;;10.10;71.20;;;5.50;100.00;96566.19;5013701;28;20032;-50
2024/02/20 04:20:51;;;;;;;3.72;2.50;;;10.10;71.10;;;5.52;100.00;96570.25;5012031;28;20033;-49
2024/02/20 04:23:18;;;;;;;4.45;2.60;;;10.10;71.20;;;5.55;100.00;96575.09;5015809;28;20056;-56
2024/02/20 04:25:44;;;;;;;4.90;3.05;;;10.10;71.30;;;5.54;100.00;96570.00;4995452;28;20112;-51
2024/02/20 04:28:09;;;;;;;5.22;3.08;;;10.10;71.30;;;5.50;100.00;96577.56;5015014;28;20151;-52
2024/02/20 04:30:39;;;;;;;6.60;3.20;;;10.10;71.40;;;5.49;100.00;96581.22;5007180;28;20111;-51
2024/02/20 04:33:05;;;;;;;6.25;3.03;;;10.00;71.30;;;5.51;100.00;96587.09;4997554;28;20484;-53
2024/02/20 04:35:31;;;;;;;5.63;3.33;;;10.00;71.40;;;5.48;100.00;96592.78;5018613;28;20026;-51
2024/02/20 04:37:57;;;;;;;6.35;3.42;;;10.00;71.50;;;5.43;100.00;96592.63;5009309;28;20033;-50
2024/02/20 04:40:24;;;;;;;6.93;3.38;;;10.00;71.60;;;5.47;100.00;96600.94;5017674;28;20501;-52
2024/02/20 04:42:50;;;;;;;8.20;3.30;;;10.00;71.60;;;5.38;100.00;96591.63;5010082;28;20523;-51
2024/02/20 04:45:16;;;;;;;8.13;3.28;;;10.00;71.60;;;5.42;100.00;96600.75;5014991;28;20108;-50
2024/02/20 04:47:42;;;;;;;5.95;3.08;;;10.00;71.60;;;5.42;100.00;96601.56;4998110;28;20430;-50
2024/02/20 04:50:08;;;;;;;6.60;2.97;;;10.00;71.60;;;5.42;100.00;96598.94;4995209;28;20380;-51
2024/02/20 04:52:34;;;;;;;4.93;3.38;;;10.00;72.40;;;5.46;100.00;96601.97;4998580;28;20048;-53
2024/02/20 04:55:02;;;;;;;6.35;3.50;;;10.00;71.70;;;5.45;100.00;96611.72;5009739;28;20021;-53
2024/02/20 04:57:28;;;;;;;6.35;3.30;;;10.00;71.70;;;5.42;100.00;96606.88;5018324;28;20079;-56
2024/02/20 04:59:55;;;;;;;6.88;4.20;;;9.90;71.60;;;5.42;100.00;96608.66;5010320;28;20029;-51
2024/02/20 05:02:20;;;;;;;5.20;3.53;;;9.90;71.70;;;5.42;100.00;96609.50;5017142;28;20086;-51
2024/02/20 05:04:46;;;;;;;5.10;3.30;;;10.00;71.70;;;5.34;100.00;96613.16;5021292;28;20021;-49
2024/02/20 05:07:12;;;;;;;6.80;3.00;;;9.90;71.70;;;5.34;100.00;96615.00;5014698;28;20384;-50
2024/02/20 05:09:38;;;;;;;6.38;2.97;;;9.90;71.70;;;5.32;100.00;96617.81;5019159;28;20041;-50
2024/02/20 05:12:05;;;;;;;6.60;3.17;;;9.90;71.70;;;5.31;100.00;96620.69;5014611;28;20476;-49
2024/02/20 05:14:30;;;;;;;5.07;3.20;;;9.90;71.80;;;5.27;100.00;96619.50;5005509;28;20388;-51
2024/02/20 05:16:56;;;;;;;3.80;3.08;;;9.90;71.80;;;5.25;100.00;96617.03;5019940;28;20031;-51
2024/02/20 05:19:22;;;;;;;5.43;3.00;;;9.90;71.80;;;5.23;100.00;96624.38;5013193;28;20025;-52
2024/02/20 05:21:48;;;;;;;7.05;2.88;;;9.90;71.80;;;5.24;100.00;96633.91;5018054;28;20648;-53
2024/02/20 05:24:13;;;;;;;7.82;3.40;;;9.90;71.80;;;5.25;100.00;96629.44;5015083;28;20091;-51
2024/02/20 05:26:39;;;;;;;7.70;3.17;;;9.90;71.80;;;5.24;100.00;96633.91;5020730;28;20503;-52
2024/02/20 05:29:05;;;;;;;6.68;3.30;;;9.90;71.80;;;5.23;100.00;96629.66;5015383;28;20108;-54
2024/02/20 05:31:32;;;;;;;4.28;3.03;;;9.90;71.80;;;5.22;100.00;96635.13;5017732;28;20028;-49
2024/02/20 05:34:01;;;;;;;7.35;3.25;;;9.90;71.80;;;5.18;100.00;96637.38;5003005;28;20386;-53
2024/02/20 05:36:33;;;;;;;4.85;3.15;;;9.80;71.70;;;5.14;100.00;96641.44;5015582;28;20079;-52
2024/02/20 05:39:00;;;;;;;6.78;3.33;;;9.80;71.70;;;5.08;100.00;96635.16;5018289;28;20032;-50
2024/02/20 05:41:30;;;;;;;6.10;3.08;;;9.80;71.60;;;5.01;100.00;96644.06;5013008;28;20123;-50
2024/02/20 05:43:58;;;;;;;4.65;3.45;;;9.80;71.50;;;4.96;100.00;96646.53;4999890;28;20032;-50
2024/02/20 05:46:30;;;;;;;6.82;3.38;;;9.70;71.50;;;4.90;100.00;96645.50;5014641;28;20051;-55
2024/02/20 05:48:57;;;;;;;6.40;3.17;;;9.60;71.50;;;4.83;100.00;96647.34;5001716;28;20021;-53
2024/02/20 05:51:25;;;;;;;6.72;3.50;;;9.50;71.40;;;4.77;100.00;96646.31;5014221;28;20033;-55
2024/02/20 05:53:53;;;;;;;9.10;4.05;;;9.50;71.50;;;4.70;100.00;96650.78;5017649;28;20018;-50
2024/02/20 05:56:20;;;;;;;8.35;3.90;;;9.40;71.40;;;4.62;100.00;96654.41;5016645;28;20025;-56
2024/02/20 05:58:46;;;;;;;7.18;3.78;;;9.40;71.50;;;4.57;100.00;96650.72;5010076;28;20534;-50
2024/02/20 06:01:13;;;;;;;7.97;3.95;;;9.30;71.50;;;4.55;100.00;96655.41;5013096;28;20091;-52
2024/02/20 06:03:40;;;;;;;8.95;4.22;;;9.30;71.60;;;4.53;100.00;96665.34;5016707;28;20032;-50
2024/02/20 06:06:07;;;;;;;8.55;4.05;;;9.30;71.80;;;4.50;100.00;96656.00;5014902;28;20039;-56
2024/02/20 06:08:44;;;;;;;7.47;4.10;;;9.30;71.90;;;4.51;100.00;96667.38;5015353;28;20040;-49
2024/02/20 06:11:17;;;;;;;7.28;3.97;;;9.30;72.00;;;4.48;100.00;96671.25;5014689;28;20047;-50
2024/02/20 06:13:45;;;;;;;6.10;4.20;;;9.20;71.90;;;4.47;100.00;96676.69;5001921;28;20466;-52
2024/02/20 06:16:12;;;;;;;6.07;4.50;;;9.20;72.10;;;4.48;100.00;96679.16;5015614;28;20108;-49
2024/02/20 06:18:38;;;;;;;9.43;3.80;;;9.20;72.10;;;4.52;100.00;96682.19;5016017;28;20025;-51
2024/02/20 06:21:08;;;;;;;5.90;4.10;;;9.20;72.20;;;4.52;100.00;96680.38;5011565;28;20024;-56
2024/02/20 06:23:42;;;;;;;19.50;11.40;;;9.30;72.40;;;4.50;100.00;96677.09;5009182;28;20523;-49
2024/02/20 06:26:08;;;;;;;14.00;5.03;;;9.30;72.40;;;4.52;100.00;96683.00;4984031;28;20021;-51
2024/02/20 06:28:34;;;;;;;8.35;4.38;;;9.30;72.20;;;4.54;100.00;96680.97;5015972;28;20100;-53
2024/02/20 06:31:05;;;;;;;8.50;4.38;;;9.30;73.00;;;4.55;100.00;96682.63;4992908;28;20025;-53
2024/02/20 06:33:31;;;;;;;7.85;4.30;;;9.40;72.30;;;4.53;100.00;96684.63;5016848;28;20175;-52
2024/02/20 06:35:57;;;;;;;7.65;4.70;;;9.40;72.20;;;4.55;100.00;96682.63;5004685;28;20104;-53
2024/02/20 06:38:31;;;;;;;7.70;4.03;;;9.40;72.30;;;4.58;100.00;96682.22;5011865;28;20072;-51
2024/02/20 06:40:58;;;;;;;7.57;4.10;;;9.40;72.20;;;4.62;100.00;96682.63;5018488;28;20029;-51
2024/02/20 06:43:24;;;;;;;9.52;4.45;;;9.40;72.20;;;4.60;100.00;96689.91;4994111;28;20024;-50
2024/02/20 06:45:50;;;;;;;6.32;3.90;;;9.50;72.20;;;4.64;100.00;96699.09;5014020;28;20480;-53
2024/02/20 06:48:15;;;;;;;7.30;4.00;;;9.50;72.20;;;4.69;100.00;96703.75;5017385;28;20080;-49
2024/02/20 06:50:41;;;;;;;9.57;4.22;;;9.50;72.20;;;4.71;100.00;96712.28;5015152;28;20040;-51
2024/02/20 06:53:07;;;;;;;12.02;3.85;;;9.50;72.20;;;4.72;100.00;96709.44;5018464;28;20120;-50
2024/02/20 06:55:33;;;;;;;7.45;4.00;;;9.60;72.30;;;4.77;100.00;96714.94;5013430;28;20028;-53
2024/02/20 06:57:59;;;;;;;8.45;4.85;;;9.60;72.20;;;4.78;100.00;96721.03;5018193;28;20496;-56
2024/02/20 07:00:26;;;;;;;7.45;3.97;;;9.70;72.30;;;4.79;100.00;96720.81;5012816;28;20491;-54
2024/02/20 07:02:51;;;;;;;7.15;4.00;;;9.70;72.10;;;4.83;100.00;96724.69;4982454;28;20040;-54
2024/02/20 07:05:18;;;;;;;6.22;3.42;;;9.80;72.10;;;4.86;100.00;96726.13;5003438;28;20025;-53
2024/02/20 07:07:45;;;;;;;6.97;3.67;;;9.80;72.10;;;4.91;100.00;96725.53;4997650;28;20028;-49
2024/02/20 07:10:11;;;;;;;5.63;3.45;;;9.80;72.10;;;4.92;100.00;96732.41;5022012;28;20017;-51
2024/02/20 07:12:37;;;;;;;7.38;3.50;;;9.90;72.10;;;4.94;100.00;96727.75;5014204;28;20617;-51
2024/02/20 07:15:06;;;;;;;5.30;3.40;;;9.90;72.00;;;4.94;100.00;96733.03;5022794;28;20028;-48
2024/02/20 07:17:34;;;;;;;6.40;3.80;;;9.90;72.70;;;4.91;100.00;96741.38;5017330;28;20025;-53
2024/02/20 07:20:04;;;;;;;7.60;3.97;;;10.00;72.00;;;4.97;100.00;96741.38;5013200;28;20029;-52
2024/02/20 07:22:32;;;;;;;8.23;3.65;;;9.90;71.90;;;5.03;100.00;96745.03;5022358;28;20491;-52
2024/02/20 07:25:02;;;;;;;7.13;4.07;;;10.00;72.00;;;5.04;100.00;96733.47;5010782;28;20026;-55
2024/02/20 07:27:28;;;;;;;7.00;4.00;;;10.00;72.00;;;5.11;100.00;96742.22;5017415;28;20029;-55
2024/02/20 07:29:56;;;;;;;7.25;4.00;;;10.10;72.00;;;5.15;100.00;96737.34;5011230;28;20021;-51
2024/02/20 07:32:22;;;;;;;6.65;4.00;;;10.20;72.00;;;5.22;100.00;96738.97;5016742;28;20029;-50
2024/02/20 07:34:50;;;;;;;8.85;3.75;;;10.30;71.90;;;5.32;100.00;96746.47;5021237;28;20443;-53
2024/02/20 07:37:16;;;;;;;6.40;3.50;;;10.40;71.80;;;5.40;100.00;96751.59;5013636;28;20021;-54
2024/02/20 07:39:42;;;;;;;7.20;3.42;;;10.50;71.90;;;5.49;100.00;96754.84;5020068;28;20016;-52
2024/02/20 07:42:08;;;;;;;7.68;3.67;;;10.60;71.90;;;5.60;100.00;96756.03;5011356;28;20029;-51
2024/02/20 07:44:34;;;;;;;6.07;3.50;;;10.70;71.90;;;5.70;100.00;96752.00;5016580;28;20025;-53
2024/02/20 07:47:00;;;;;;;7.20;4.10;;;10.80;71.90;;;5.80;100.00;96752.38;5016757;28;20051;-52
2024/02/20 07:49:26;;;;;;;8.98;3.83;;;10.90;71.80;;;5.88;100.00;96747.88;5014296;28;20460;-53
2024/02/20 07:51:52;;;;;;;8.02;3.50;;;11.10;71.80;;;5.94;100.00;96755.84;5015463;28;20040;-53
2024/02/20 07:54:18;;;;;;;4.65;3.55;;;11.20;71.80;;;6.00;100.00;96744.44;5011619;28;20055;-55
2024/02/20 07:56:45;;;;;;;7.55;3.60;;;11.20;71.60;;;6.08;100.00;96756.63;5017193;28;20090;-53
2024/02/20 07:59:11;;;;;;;4.72;3.22;;;11.30;71.50;;;6.02;100.00;96758.25;5011487;28;20049;-51
2024/02/20 08:01:37;;;;;;;6.30;3.47;;;11.30;71.30;;;6.02;100.00;96758.25;5012539;28;20053;-55
2024/02/20 08:04:03;;;;;;;6.25;3.40;;;11.30;71.20;;;6.02;100.00;96770.69;5012187;28;20021;-52
2024/02/20 08:06:29;;;;;;;5.30;2.70;;;11.30;71.00;;;6.08;100.00;96769.88;5015104;28;20136;-50
2024/02/20 08:08:55;;;;;;;7.38;2.67;;;11.40;71.00;;;6.11;100.00;96773.91;5014900;28;20043;-52
2024/02/20 08:11:21;;;;;;;5.82;2.67;;;11.40;70.90;;;6.15;100.00;96773.28;5015496;28;20028;-50
2024/02/20 08:13:49;;;;;;;4.90;2.58;;;11.50;70.80;;;6.21;100.00;96766.38;5016685;28;20029;-50
2024/02/20 08:16:16;;;;;;;4.60;2.50;;;11.50;70.70;;;6.21;100.00;96769.81;4995764;28;20112;-54
2024/02/20 08:18:44;;;;;;;6.53;2.72;;;11.50;70.50;;;6.24;100.00;96776.53;4992694;28;20331;-53
2024/02/20 08:21:11;;;;;;;4.85;2.72;;;11.50;70.30;;;6.26;100.00;96785.88;5010706;28;20028;-52
2024/02/20 08:23:39;;;;;;;4.13;2.80;;;11.50;70.30;;;6.29;100.00;96782.00;4998011;28;20076;-57
2024/02/20 08:26:05;;;;;;;4.50;3.30;;;11.50;70.30;;;6.31;100.00;96782.63;5017064;28;20025;-51
2024/02/20 08:28:31;;;;;;;4.85;2.85;;;11.60;70.30;;;6.37;100.00;96787.06;5016003;28;20028;-56
2024/02/20 08:30:59;;;;;;;4.82;3.25;;;11.60;70.10;;;6.47;100.00;96786.63;5014704;28;20369;-56
2024/02/20 08:33:25;;;;;;;6.20;3.10;;;11.70;70.10;;;6.78;100.00;96790.38;5018402;28;20392;-56
2024/02/20 08:35:53;;;;;;;3.78;3.08;;;12.10;70.30;;;7.16;100.00;96788.53;5020490;28;20476;-55
2024/02/20 08:38:20;;;;;;;4.40;2.67;;;12.50;70.20;;;7.56;100.00;96780.31;4994787;28;20044;-57
2024/02/20 08:40:46;;;;;;;4.95;2.60;;;12.90;69.60;;;7.94;100.00;96789.19;5016471;28;20017;-55
2024/02/20 08:43:13;;;;;;;4.05;3.00;;;13.30;69.20;;;8.18;100.00;96788.34;5009681;28;20064;-57
2024/02/20 08:45:39;;;;;;;5.80;3.05;;;13.70;68.70;;;8.41;100.00;96787.72;5002250;28;20028;-56
2024/02/20 08:48:06;;;;;;;4.82;2.78;;;14.00;68.30;;;8.67;100.00;96791.91;4994880;28;20029;-56
2024/02/20 08:50:31;;;;;;;2.90;2.63;;;14.40;67.80;;;9.01;100.00;96790.47;5017110;28;20048;-54
2024/02/20 08:53:01;;;;;;;3.63;2.53;;;14.70;67.00;;;9.35;99.36;96790.00;5016913;28;20615;-58
2024/02/20 08:55:27;;;;;;;6.47;2.10;;;15.00;66.40;;;9.65;94.23;96792.59;5017560;28;20037;-56
2024/02/20 08:57:53;;;;;;;5.07;2.10;;;15.40;65.50;;;9.74;83.34;96799.22;5022165;28;20017;-57
2024/02/20 09:00:21;;;;;;;4.10;1.77;;;15.70;64.60;;;9.90;79.51;96797.72;5014040;28;20028;-56
2024/02/20 09:02:47;;;;;;;6.32;2.22;;;16.00;63.40;;;10.15;80.91;96798.34;5013175;28;20035;-54
2024/02/20 09:05:14;;;;;;;5.97;1.90;;;16.40;62.70;;;10.35;76.61;96799.88;5014547;28;20068;-56
2024/02/20 09:07:42;;;;;;;7.65;2.03;;;16.70;61.70;;;10.57;71.65;96802.72;5014821;28;20057;-55
2024/02/20 09:10:09;;;;;;;6.35;1.80;;;16.90;60.20;;;10.48;70.24;96802.28;5002834;28;20472;-58
2024/02/20 09:12:35;;;;;;;5.80;2.40;;;16.80;60.30;;;10.71;70.92;96803.28;5012592;28;20127;-57
2024/02/20 09:15:02;;;;;;;6.30;2.10;;;16.90;59.30;;;10.88;68.20;96802.31;5019541;28;20503;-57
2024/02/20 09:17:29;;;;;;;3.55;1.85;;;17.10;58.60;;;11.04;70.71;96799.94;5015641;28;20167;-57
2024/02/20 09:19:55;;;;;;;3.47;1.92;;;17.40;58.10;;;11.30;71.39;96806.53;5019207;28;20483;-55
2024/02/20 09:22:21;;;;;;;4.70;2.20;;;17.70;57.70;;;11.52;67.43;96804.00;5021845;28;20021;-54
2024/02/20 09:24:47;;;;;;;7.53;2.35;;;18.00;57.40;;;11.61;65.06;96807.91;5010368;28;20114;-58
2024/02/20 09:27:13;;;;;;;4.28;1.90;;;18.20;56.30;;;11.53;69.76;96810.94;5016694;28;20033;-57
2024/02/20 09:29:39;;;;;;;5.90;2.10;;;18.00;56.20;;;11.34;65.99;96808.50;5010587;28;20024;-58
2024/02/20 09:32:05;;;;;;;4.57;2.20;;;17.80;55.70;;;11.33;65.85;96816.75;5014671;28;20511;-55
2024/02/20 09:34:31;;;;;;;3.72;1.90;;;17.50;55.50;;;10.99;67.59;96810.50;5000078;28;20112;-54
2024/02/20 09:36:57;;;;;;;3.85;1.67;;;17.20;55.50;;;10.93;67.12;96816.78;5013621;28;20452;-52
2024/02/20 09:39:23;;;;;;;4.53;1.92;;;17.00;55.40;;;10.94;67.19;96813.88;5003423;28;20067;-49
2024/02/20 09:41:53;;;;;;;4.85;1.75;;;17.00;55.40;;;10.76;65.61;96808.72;5012679;28;20033;-52
2024/02/20 09:44:20;;;;;;;10.13;2.40;;;16.80;54.90;;;10.62;67.82;96819.63;4995342;28;20036;-49
2024/02/20 09:46:56;;;;;;;7.45;2.10;;;16.70;55.00;;;10.58;67.37;96812.34;4996483;28;20386;-51
2024/02/20 09:49:23;;;;;;;5.28;1.50;;;16.60;54.90;;;10.50;63.54;96810.00;4996561;28;20037;-54
2024/02/20 09:51:50;;;;;;;7.00;1.67;;;16.60;54.70;;;10.42;61.89;96809.34;5020014;28;20037;-52
2024/02/20 09:54:17;;;;;;;5.82;1.65;;;16.50;54.40;;;10.37;61.37;96811.06;5014317;28;20025;-55
2024/02/20 09:56:45;;;;;;;8.55;1.60;;;16.30;54.20;;;10.20;61.50;96801.09;5020562;28;20476;-52
2024/02/20 09:59:12;;;;;;;4.70;1.30;;;16.10;53.70;;;9.99;59.43;96808.84;5008635;28;20033;-52
2024/02/20 10:01:39;;;;;;;4.68;1.73;;;16.00;53.50;;;9.89;58.96;96807.56;5016873;28;20502;-49
2024/02/20 10:04:08;;;;;;;6.32;1.60;;;15.80;53.20;;;9.88;57.79;96800.63;5016585;28;20107;-52
2024/02/20 10:06:35;;;;;;;5.18;1.40;;;15.70;52.90;;;9.66;61.13;96803.03;5016306;28;20407;-50
2024/02/20 10:09:02;;;;;;;6.43;1.63;;;15.60;53.00;;;9.87;59.81;96798.19;4999254;28;20471;-59
2024/02/20 10:11:28;;;;;;;5.55;1.75;;;15.80;52.90;;;10.21;58.69;96796.56;5015489;28;20025;-57
2024/02/20 10:13:58;;;;;;;3.72;1.38;;;16.40;52.60;;;10.69;59.59;96797.38;5002049;28;20356;-57
2024/02/20 10:16:24;;;;;;;4.93;1.85;;;17.00;52.30;;;11.09;54.34;96794.69;5011318;28;20117;-59
2024/02/20 10:19:04;;;;;;;6.70;2.13;;;17.80;51.60;;;11.52;57.28;96796.81;5018079;28;20032;-59